Kezdőlap
METAR-TAF:

METAR-TAF

Repülőterek :

Prága, Csehország

földrajzi szélesség: 50-12-59N, földrajzi hosszúság: 014-23-42E, magasság: 280 m

Jelenlegi meteorológiai megfigyelések

A jelentés 6 órával és 40 perccel ezelõtt készült, 14:00 UTC
Északnyugati szél 10 kt, nyugati és észak-északkeleti között változik
Hőmérséklet 5°C
Páratartalom 81%
Légköri nyomás 1015 hPa
Látótávolság 10 km, vagy több
Kevés felhő 1800 lábon, Tornyos gomolyfelhő.
Szakadozott felhőzet 4700 lábon
enyhe záporok

METAR: LKVO 191400Z 32010KT 270V030 9999 -SHRA FEW018TCU BKN047 05/02 Q1015

Idő: 21:40 (20:40 UTC)


TAF: hiányzik

Meteorológiai megfigyelések és előrejelzések több, mint 4000 repülőtéren (METAR és TAF jelentéseket).

A térképen piros és sárga pontok jelzik az elérhető meteorológiai állomásokat.

Mozgassa az egeret a pont fölött, hogy megjelenjen az állomás neve.

Azután kattintson az időjárási megfigyelések és előrejelzések megtekintéséhez.

A térkép megváltoztatása: kattintson a fekete keresztel jelölt zöld gombra ráközelítéshez, a vonallal jelölt zöld gombra távolításhoz, vagy a zöld nyilakra a szomszédos térképek eléréséhez.


METAR-TAF: